sensor_id;sensor_type;location;lat;lon;timestamp;temperature;humidity
15625;DHT22;7912;51.376;6.126;2023-06-24T00:01:13;22.40;99.90
15625;DHT22;7912;51.376;6.126;2023-06-24T00:03:42;22.40;99.90
15625;DHT22;7912;51.376;6.126;2023-06-24T00:06:21;22.40;99.90
15625;DHT22;7912;51.376;6.126;2023-06-24T00:08:58;22.30;99.90
15625;DHT22;7912;51.376;6.126;2023-06-24T00:11:34;22.30;99.90
15625;DHT22;7912;51.376;6.126;2023-06-24T00:14:02;22.30;99.90
15625;DHT22;7912;51.376;6.126;2023-06-24T00:16:30;22.30;99.90
15625;DHT22;7912;51.376;6.126;2023-06-24T00:18:58;22.30;99.90
15625;DHT22;7912;51.376;6.126;2023-06-24T00:21:28;22.30;99.90
15625;DHT22;7912;51.376;6.126;2023-06-24T00:24:01;22.30;99.90
15625;DHT22;7912;51.376;6.126;2023-06-24T00:26:32;22.30;99.90
15625;DHT22;7912;51.376;6.126;2023-06-24T00:29:05;22.30;99.90
15625;DHT22;7912;51.376;6.126;2023-06-24T00:31:45;22.30;99.90
15625;DHT22;7912;51.376;6.126;2023-06-24T00:34:23;22.30;99.90
15625;DHT22;7912;51.376;6.126;2023-06-24T00:36:54;22.30;99.90
15625;DHT22;7912;51.376;6.126;2023-06-24T00:39:24;22.40;99.90
15625;DHT22;7912;51.376;6.126;2023-06-24T00:42:03;22.40;99.90
15625;DHT22;7912;51.376;6.126;2023-06-24T00:44:50;22.40;99.90
15625;DHT22;7912;51.376;6.126;2023-06-24T00:47:27;22.50;99.90
15625;DHT22;7912;51.376;6.126;2023-06-24T00:50:04;22.50;99.90
15625;DHT22;7912;51.376;6.126;2023-06-24T00:52:33;22.60;99.90
15625;DHT22;7912;51.376;6.126;2023-06-24T00:55:07;22.60;99.90
15625;DHT22;7912;51.376;6.126;2023-06-24T00:57:35;22.60;99.90
15625;DHT22;7912;51.376;6.126;2023-06-24T01:00:06;22.60;99.90
15625;DHT22;7912;51.376;6.126;2023-06-24T01:06:41;22.60;99.90
15625;DHT22;7912;51.376;6.126;2023-06-24T01:09:11;22.70;99.90
15625;DHT22;7912;51.376;6.126;2023-06-24T01:11:45;22.70;99.90
15625;DHT22;7912;51.376;6.126;2023-06-24T01:14:30;22.60;99.90
15625;DHT22;7912;51.376;6.126;2023-06-24T01:17:17;22.60;99.90
15625;DHT22;7912;51.376;6.126;2023-06-24T01:29:05;22.50;99.90
15625;DHT22;7912;51.376;6.126;2023-06-24T01:41:47;22.30;99.90
15625;DHT22;7912;51.376;6.126;2023-06-24T01:44:33;22.30;99.90
15625;DHT22;7912;51.376;6.126;2023-06-24T01:47:18;22.20;99.90
15625;DHT22;7912;51.376;6.126;2023-06-24T01:49:53;22.10;99.90
15625;DHT22;7912;51.376;6.126;2023-06-24T01:52:26;22.10;99.90
15625;DHT22;7912;51.376;6.126;2023-06-24T01:54:59;22.00;99.90
15625;DHT22;7912;51.376;6.126;2023-06-24T01:57:32;22.00;99.90
15625;DHT22;7912;51.376;6.126;2023-06-24T02:00:04;21.90;99.90
15625;DHT22;7912;51.376;6.126;2023-06-24T02:02:38;21.90;99.90
15625;DHT22;7912;51.376;6.126;2023-06-24T02:05:08;21.90;99.90
15625;DHT22;7912;51.376;6.126;2023-06-24T02:07:49;21.80;99.90
15625;DHT22;7912;51.376;6.126;2023-06-24T02:10:19;21.80;99.90
15625;DHT22;7912;51.376;6.126;2023-06-24T02:12:51;21.80;99.90
15625;DHT22;7912;51.376;6.126;2023-06-24T02:15:22;21.80;99.90
15625;DHT22;7912;51.376;6.126;2023-06-24T02:17:54;21.70;99.90
15625;DHT22;7912;51.376;6.126;2023-06-24T02:20:25;21.70;99.90
15625;DHT22;7912;51.376;6.126;2023-06-24T02:22:59;21.60;99.90
15625;DHT22;7912;51.376;6.126;2023-06-24T02:25:28;21.60;99.90
15625;DHT22;7912;51.376;6.126;2023-06-24T02:28:01;21.50;99.90
15625;DHT22;7912;51.376;6.126;2023-06-24T02:30:29;21.50;99.90
15625;DHT22;7912;51.376;6.126;2023-06-24T02:32:59;21.40;99.90
15625;DHT22;7912;51.376;6.126;2023-06-24T02:35:27;21.40;99.90
15625;DHT22;7912;51.376;6.126;2023-06-24T02:37:57;21.30;99.90
15625;DHT22;7912;51.376;6.126;2023-06-24T02:40:26;21.30;99.90
15625;DHT22;7912;51.376;6.126;2023-06-24T02:42:56;21.20;99.90
15625;DHT22;7912;51.376;6.126;2023-06-24T02:45:28;21.20;99.90
15625;DHT22;7912;51.376;6.126;2023-06-24T02:48:06;21.20;99.90
15625;DHT22;7912;51.376;6.126;2023-06-24T02:50:41;21.20;99.90
15625;DHT22;7912;51.376;6.126;2023-06-24T02:53:19;21.20;99.90
15625;DHT22;7912;51.376;6.126;2023-06-24T02:55:50;21.10;99.90
15625;DHT22;7912;51.376;6.126;2023-06-24T02:58:19;21.10;99.90
15625;DHT22;7912;51.376;6.126;2023-06-24T03:00:47;21.10;99.90
15625;DHT22;7912;51.376;6.126;2023-06-24T03:03:17;21.10;99.90
15625;DHT22;7912;51.376;6.126;2023-06-24T03:05:46;21.10;99.90
15625;DHT22;7912;51.376;6.126;2023-06-24T03:08:18;21.00;99.90
15625;DHT22;7912;51.376;6.126;2023-06-24T03:10:46;21.00;99.90
15625;DHT22;7912;51.376;6.126;2023-06-24T03:13:14;21.00;99.90
15625;DHT22;7912;51.376;6.126;2023-06-24T03:15:46;21.00;99.90
15625;DHT22;7912;51.376;6.126;2023-06-24T03:18:16;21.00;99.90
15625;DHT22;7912;51.376;6.126;2023-06-24T03:20:45;20.90;99.90
15625;DHT22;7912;51.376;6.126;2023-06-24T03:23:14;20.90;99.90
15625;DHT22;7912;51.376;6.126;2023-06-24T03:25:42;20.90;99.90
15625;DHT22;7912;51.376;6.126;2023-06-24T03:28:16;20.90;99.90
15625;DHT22;7912;51.376;6.126;2023-06-24T03:30:44;20.80;99.90
15625;DHT22;7912;51.376;6.126;2023-06-24T03:33:12;20.80;99.90
15625;DHT22;7912;51.376;6.126;2023-06-24T03:35:44;20.80;99.90
15625;DHT22;7912;51.376;6.126;2023-06-24T03:38:18;20.80;99.90
15625;DHT22;7912;51.376;6.126;2023-06-24T03:40:52;20.80;99.90
15625;DHT22;7912;51.376;6.126;2023-06-24T03:43:20;20.80;99.90
15625;DHT22;7912;51.376;6.126;2023-06-24T03:45:49;20.80;99.90
15625;DHT22;7912;51.376;6.126;2023-06-24T03:48:17;20.80;99.90
15625;DHT22;7912;51.376;6.126;2023-06-24T03:50:45;20.80;99.90
15625;DHT22;7912;51.376;6.126;2023-06-24T03:53:17;20.80;99.90
15625;DHT22;7912;51.376;6.126;2023-06-24T03:55:45;20.70;99.90
15625;DHT22;7912;51.376;6.126;2023-06-24T03:58:13;20.80;99.90
15625;DHT22;7912;51.376;6.126;2023-06-24T04:00:41;20.80;99.90
15625;DHT22;7912;51.376;6.126;2023-06-24T04:03:11;20.80;99.90
15625;DHT22;7912;51.376;6.126;2023-06-24T04:05:39;20.80;99.90
15625;DHT22;7912;51.376;6.126;2023-06-24T04:12:20;20.80;99.90
15625;DHT22;7912;51.376;6.126;2023-06-24T04:14:50;20.80;99.90
15625;DHT22;7912;51.376;6.126;2023-06-24T04:17:18;20.80;99.90
15625;DHT22;7912;51.376;6.126;2023-06-24T04:19:47;20.80;99.90
15625;DHT22;7912;51.376;6.126;2023-06-24T04:22:15;20.80;99.90
15625;DHT22;7912;51.376;6.126;2023-06-24T04:24:46;20.80;99.90
15625;DHT22;7912;51.376;6.126;2023-06-24T04:27:14;20.80;99.90
15625;DHT22;7912;51.376;6.126;2023-06-24T04:29:42;20.80;99.90
15625;DHT22;7912;51.376;6.126;2023-06-24T04:32:12;20.90;99.90
15625;DHT22;7912;51.376;6.126;2023-06-24T04:34:40;20.90;99.90
15625;DHT22;7912;51.376;6.126;2023-06-24T04:37:08;20.90;99.90
15625;DHT22;7912;51.376;6.126;2023-06-24T04:39:35;20.90;99.90
15625;DHT22;7912;51.376;6.126;2023-06-24T04:42:06;20.90;99.90
15625;DHT22;7912;51.376;6.126;2023-06-24T04:44:39;21.00;99.90
15625;DHT22;7912;51.376;6.126;2023-06-24T04:47:07;21.00;99.90
15625;DHT22;7912;51.376;6.126;2023-06-24T04:49:35;21.10;99.90
15625;DHT22;7912;51.376;6.126;2023-06-24T04:52:03;21.10;99.90
15625;DHT22;7912;51.376;6.126;2023-06-24T04:54:33;21.10;99.90
15625;DHT22;7912;51.376;6.126;2023-06-24T04:57:14;21.10;99.90
15625;DHT22;7912;51.376;6.126;2023-06-24T04:59:51;21.20;99.90
15625;DHT22;7912;51.376;6.126;2023-06-24T05:02:18;21.20;99.90
15625;DHT22;7912;51.376;6.126;2023-06-24T05:04:48;21.20;99.90
15625;DHT22;7912;51.376;6.126;2023-06-24T05:07:18;21.30;99.90
15625;DHT22;7912;51.376;6.126;2023-06-24T05:09:49;21.30;99.90
15625;DHT22;7912;51.376;6.126;2023-06-24T05:12:20;21.30;99.90
15625;DHT22;7912;51.376;6.126;2023-06-24T05:14:51;21.40;99.90
15625;DHT22;7912;51.376;6.126;2023-06-24T05:17:20;21.40;99.90
15625;DHT22;7912;51.376;6.126;2023-06-24T05:19:47;21.40;99.90
15625;DHT22;7912;51.376;6.126;2023-06-24T05:22:16;21.50;99.90
15625;DHT22;7912;51.376;6.126;2023-06-24T05:24:43;21.50;99.90
15625;DHT22;7912;51.376;6.126;2023-06-24T05:27:11;21.50;99.90
15625;DHT22;7912;51.376;6.126;2023-06-24T05:29:39;21.60;99.90
15625;DHT22;7912;51.376;6.126;2023-06-24T05:32:07;21.60;99.90
15625;DHT22;7912;51.376;6.126;2023-06-24T05:34:36;21.70;99.90
15625;DHT22;7912;51.376;6.126;2023-06-24T05:37:07;21.70;99.90
15625;DHT22;7912;51.376;6.126;2023-06-24T05:39:38;21.70;99.90
15625;DHT22;7912;51.376;6.126;2023-06-24T05:42:11;21.80;99.90
15625;DHT22;7912;51.376;6.126;2023-06-24T05:44:45;21.80;99.90
15625;DHT22;7912;51.376;6.126;2023-06-24T05:47:13;21.90;99.90
15625;DHT22;7912;51.376;6.126;2023-06-24T05:49:47;21.90;99.90
15625;DHT22;7912;51.376;6.126;2023-06-24T05:52:28;22.00;99.90
15625;DHT22;7912;51.376;6.126;2023-06-24T05:54:56;22.00;99.90
15625;DHT22;7912;51.376;6.126;2023-06-24T05:57:23;22.10;99.90
15625;DHT22;7912;51.376;6.126;2023-06-24T05:59:51;22.10;99.90
15625;DHT22;7912;51.376;6.126;2023-06-24T06:02:18;22.20;99.90
15625;DHT22;7912;51.376;6.126;2023-06-24T06:04:46;22.30;99.90
15625;DHT22;7912;51.376;6.126;2023-06-24T06:07:20;22.30;99.90
15625;DHT22;7912;51.376;6.126;2023-06-24T06:09:55;22.40;99.90
15625;DHT22;7912;51.376;6.126;2023-06-24T06:12:23;22.50;99.90
15625;DHT22;7912;51.376;6.126;2023-06-24T06:14:53;22.50;99.90
15625;DHT22;7912;51.376;6.126;2023-06-24T06:17:24;22.60;99.90
15625;DHT22;7912;51.376;6.126;2023-06-24T06:19:54;22.70;99.90
15625;DHT22;7912;51.376;6.126;2023-06-24T06:22:21;22.80;99.90
15625;DHT22;7912;51.376;6.126;2023-06-24T06:24:48;22.90;99.90
15625;DHT22;7912;51.376;6.126;2023-06-24T06:27:16;22.90;99.90
15625;DHT22;7912;51.376;6.126;2023-06-24T06:29:43;23.10;99.90
15625;DHT22;7912;51.376;6.126;2023-06-24T06:32:13;23.20;99.90
15625;DHT22;7912;51.376;6.126;2023-06-24T06:34:43;23.40;99.90
15625;DHT22;7912;51.376;6.126;2023-06-24T06:37:11;23.70;99.90
15625;DHT22;7912;51.376;6.126;2023-06-24T06:39:38;24.00;99.90
15625;DHT22;7912;51.376;6.126;2023-06-24T06:42:08;24.30;99.90
15625;DHT22;7912;51.376;6.126;2023-06-24T06:44:38;24.60;99.90
15625;DHT22;7912;51.376;6.126;2023-06-24T06:47:06;25.00;99.90
15625;DHT22;7912;51.376;6.126;2023-06-24T06:49:34;25.40;99.90
15625;DHT22;7912;51.376;6.126;2023-06-24T06:52:06;25.90;99.90
15625;DHT22;7912;51.376;6.126;2023-06-24T06:54:37;26.30;99.90
15625;DHT22;7912;51.376;6.126;2023-06-24T06:57:05;26.70;99.90
15625;DHT22;7912;51.376;6.126;2023-06-24T06:59:33;27.10;99.90
15625;DHT22;7912;51.376;6.126;2023-06-24T07:02:03;27.50;99.90
15625;DHT22;7912;51.376;6.126;2023-06-24T07:04:32;27.90;99.70
15625;DHT22;7912;51.376;6.126;2023-06-24T07:06:59;28.20;98.30
15625;DHT22;7912;51.376;6.126;2023-06-24T07:09:27;28.60;97.70
15625;DHT22;7912;51.376;6.126;2023-06-24T07:11:54;28.90;97.10
15625;DHT22;7912;51.376;6.126;2023-06-24T07:14:22;29.30;96.30
15625;DHT22;7912;51.376;6.126;2023-06-24T07:16:49;29.60;95.10
15625;DHT22;7912;51.376;6.126;2023-06-24T07:19:16;29.90;94.30
15625;DHT22;7912;51.376;6.126;2023-06-24T07:21:44;30.20;93.40
15625;DHT22;7912;51.376;6.126;2023-06-24T07:24:11;30.50;92.20
15625;DHT22;7912;51.376;6.126;2023-06-24T07:26:44;30.80;91.20
15625;DHT22;7912;51.376;6.126;2023-06-24T07:29:11;30.90;89.40
15625;DHT22;7912;51.376;6.126;2023-06-24T07:31:40;31.20;90.00
15625;DHT22;7912;51.376;6.126;2023-06-24T07:34:10;31.40;88.00
15625;DHT22;7912;51.376;6.126;2023-06-24T07:36:38;31.50;86.40
15625;DHT22;7912;51.376;6.126;2023-06-24T07:39:05;31.60;86.40
15625;DHT22;7912;51.376;6.126;2023-06-24T07:41:33;31.80;85.40
15625;DHT22;7912;51.376;6.126;2023-06-24T07:44:03;31.90;85.00
15625;DHT22;7912;51.376;6.126;2023-06-24T07:46:31;31.90;82.80
15625;DHT22;7912;51.376;6.126;2023-06-24T07:48:58;32.10;83.20
15625;DHT22;7912;51.376;6.126;2023-06-24T07:51:44;32.10;82.70
15625;DHT22;7912;51.376;6.126;2023-06-24T07:54:12;32.20;81.50
15625;DHT22;7912;51.376;6.126;2023-06-24T07:56:39;32.40;82.40
15625;DHT22;7912;51.376;6.126;2023-06-24T07:59:07;32.50;81.70
15625;DHT22;7912;51.376;6.126;2023-06-24T08:01:34;32.60;81.30
15625;DHT22;7912;51.376;6.126;2023-06-24T08:04:01;32.70;80.50
15625;DHT22;7912;51.376;6.126;2023-06-24T08:06:30;32.80;81.10
15625;DHT22;7912;51.376;6.126;2023-06-24T08:08:58;33.00;80.40
15625;DHT22;7912;51.376;6.126;2023-06-24T08:11:25;33.10;79.90
15625;DHT22;7912;51.376;6.126;2023-06-24T08:13:53;33.30;79.10
15625;DHT22;7912;51.376;6.126;2023-06-24T08:16:23;33.50;77.60
15625;DHT22;7912;51.376;6.126;2023-06-24T08:18:52;33.60;77.00
15625;DHT22;7912;51.376;6.126;2023-06-24T08:21:20;33.70;76.60
15625;DHT22;7912;51.376;6.126;2023-06-24T08:23:50;33.80;75.50
15625;DHT22;7912;51.376;6.126;2023-06-24T08:26:20;33.90;74.10
15625;DHT22;7912;51.376;6.126;2023-06-24T08:28:48;34.00;73.70
15625;DHT22;7912;51.376;6.126;2023-06-24T08:31:16;34.10;70.80
15625;DHT22;7912;51.376;6.126;2023-06-24T08:33:44;34.20;70.80
15625;DHT22;7912;51.376;6.126;2023-06-24T08:36:14;34.30;70.70
15625;DHT22;7912;51.376;6.126;2023-06-24T08:38:42;34.40;69.60
15625;DHT22;7912;51.376;6.126;2023-06-24T08:41:09;34.50;68.20
15625;DHT22;7912;51.376;6.126;2023-06-24T08:43:37;34.60;67.20
15625;DHT22;7912;51.376;6.126;2023-06-24T08:46:08;34.70;66.60
15625;DHT22;7912;51.376;6.126;2023-06-24T08:48:35;34.80;64.70
15625;DHT22;7912;51.376;6.126;2023-06-24T08:51:13;34.80;64.60
15625;DHT22;7912;51.376;6.126;2023-06-24T08:53:49;34.80;64.40
15625;DHT22;7912;51.376;6.126;2023-06-24T08:56:18;34.90;63.50
15625;DHT22;7912;51.376;6.126;2023-06-24T08:58:45;34.90;63.90
15625;DHT22;7912;51.376;6.126;2023-06-24T09:01:12;35.00;63.70
15625;DHT22;7912;51.376;6.126;2023-06-24T09:03:40;35.00;62.60
15625;DHT22;7912;51.376;6.126;2023-06-24T09:06:08;35.10;62.10
15625;DHT22;7912;51.376;6.126;2023-06-24T09:08:35;35.10;61.90
15625;DHT22;7912;51.376;6.126;2023-06-24T09:11:08;35.20;60.90
15625;DHT22;7912;51.376;6.126;2023-06-24T09:13:37;35.20;59.00
15625;DHT22;7912;51.376;6.126;2023-06-24T09:16:14;35.30;58.60
15625;DHT22;7912;51.376;6.126;2023-06-24T09:18:56;35.30;58.20
15625;DHT22;7912;51.376;6.126;2023-06-24T09:21:42;35.30;58.50
15625;DHT22;7912;51.376;6.126;2023-06-24T09:24:13;35.40;58.90
15625;DHT22;7912;51.376;6.126;2023-06-24T09:26:43;35.40;59.40
15625;DHT22;7912;51.376;6.126;2023-06-24T09:29:13;35.50;58.10
15625;DHT22;7912;51.376;6.126;2023-06-24T09:31:48;35.50;57.10
15625;DHT22;7912;51.376;6.126;2023-06-24T09:34:17;35.60;55.50
15625;DHT22;7912;51.376;6.126;2023-06-24T09:36:55;35.60;56.00
15625;DHT22;7912;51.376;6.126;2023-06-24T09:39:24;35.70;54.50
15625;DHT22;7912;51.376;6.126;2023-06-24T09:42:01;35.70;54.90
15625;DHT22;7912;51.376;6.126;2023-06-24T09:44:29;35.80;55.00
15625;DHT22;7912;51.376;6.126;2023-06-24T09:46:56;35.80;54.60
15625;DHT22;7912;51.376;6.126;2023-06-24T09:49:24;35.90;54.40
15625;DHT22;7912;51.376;6.126;2023-06-24T09:51:56;36.00;54.00
15625;DHT22;7912;51.376;6.126;2023-06-24T09:54:26;36.00;53.70
15625;DHT22;7912;51.376;6.126;2023-06-24T09:57:02;36.10;53.60
15625;DHT22;7912;51.376;6.126;2023-06-24T09:59:31;36.20;52.60
15625;DHT22;7912;51.376;6.126;2023-06-24T10:02:02;36.20;52.70
15625;DHT22;7912;51.376;6.126;2023-06-24T10:04:31;36.30;53.00
15625;DHT22;7912;51.376;6.126;2023-06-24T10:06:59;36.30;52.80
15625;DHT22;7912;51.376;6.126;2023-06-24T10:09:29;36.40;52.60
15625;DHT22;7912;51.376;6.126;2023-06-24T10:11:57;36.50;52.70
15625;DHT22;7912;51.376;6.126;2023-06-24T10:14:25;36.60;52.40
15625;DHT22;7912;51.376;6.126;2023-06-24T10:17:04;36.80;52.20
15625;DHT22;7912;51.376;6.126;2023-06-24T10:19:38;37.00;51.20
15625;DHT22;7912;51.376;6.126;2023-06-24T10:22:08;37.20;51.40
15625;DHT22;7912;51.376;6.126;2023-06-24T10:24:39;37.30;51.80
15625;DHT22;7912;51.376;6.126;2023-06-24T10:30:20;37.60;50.30
15625;DHT22;7912;51.376;6.126;2023-06-24T10:32:55;37.70;50.40
15625;DHT22;7912;51.376;6.126;2023-06-24T10:35:25;37.80;50.30
15625;DHT22;7912;51.376;6.126;2023-06-24T10:38:01;37.80;49.90
15625;DHT22;7912;51.376;6.126;2023-06-24T10:40:39;38.00;49.40
15625;DHT22;7912;51.376;6.126;2023-06-24T10:43:25;38.10;48.80
15625;DHT22;7912;51.376;6.126;2023-06-24T10:45:55;38.20;48.30
15625;DHT22;7912;51.376;6.126;2023-06-24T10:48:25;38.30;48.70
15625;DHT22;7912;51.376;6.126;2023-06-24T10:50:52;38.40;48.60
15625;DHT22;7912;51.376;6.126;2023-06-24T10:53:21;38.40;48.50
15625;DHT22;7912;51.376;6.126;2023-06-24T10:55:50;38.60;48.20
15625;DHT22;7912;51.376;6.126;2023-06-24T10:58:17;38.60;48.10
15625;DHT22;7912;51.376;6.126;2023-06-24T11:00:44;38.60;48.10
15625;DHT22;7912;51.376;6.126;2023-06-24T11:03:15;38.60;48.10
15625;DHT22;7912;51.376;6.126;2023-06-24T11:05:45;38.60;48.10
15625;DHT22;7912;51.376;6.126;2023-06-24T11:08:13;38.60;47.20
15625;DHT22;7912;51.376;6.126;2023-06-24T11:10:48;38.60;47.10
15625;DHT22;7912;51.376;6.126;2023-06-24T11:13:15;38.60;46.30
15625;DHT22;7912;51.376;6.126;2023-06-24T11:15:50;38.60;46.80
15625;DHT22;7912;51.376;6.126;2023-06-24T11:18:19;38.60;46.70
15625;DHT22;7912;51.376;6.126;2023-06-24T11:20:47;38.60;47.10
15625;DHT22;7912;51.376;6.126;2023-06-24T11:23:14;38.60;47.30
15625;DHT22;7912;51.376;6.126;2023-06-24T11:25:43;38.60;46.00
15625;DHT22;7912;51.376;6.126;2023-06-24T11:28:16;38.60;46.20
15625;DHT22;7912;51.376;6.126;2023-06-24T11:30:48;38.60;45.30
15625;DHT22;7912;51.376;6.126;2023-06-24T11:33:29;38.60;45.80
15625;DHT22;7912;51.376;6.126;2023-06-24T11:35:56;38.40;45.30
15625;DHT22;7912;51.376;6.126;2023-06-24T11:38:24;38.40;45.60
15625;DHT22;7912;51.376;6.126;2023-06-24T11:40:59;38.40;46.50
15625;DHT22;7912;51.376;6.126;2023-06-24T11:43:26;38.40;46.10
15625;DHT22;7912;51.376;6.126;2023-06-24T11:45:54;38.40;46.40
15625;DHT22;7912;51.376;6.126;2023-06-24T11:48:21;38.40;46.40
15625;DHT22;7912;51.376;6.126;2023-06-24T11:50:55;38.50;45.80
15625;DHT22;7912;51.376;6.126;2023-06-24T11:53:41;38.50;45.70
15625;DHT22;7912;51.376;6.126;2023-06-24T11:56:10;38.40;45.40
15625;DHT22;7912;51.376;6.126;2023-06-24T11:58:37;38.40;46.00
15625;DHT22;7912;51.376;6.126;2023-06-24T12:01:08;38.40;45.20
15625;DHT22;7912;51.376;6.126;2023-06-24T12:03:36;38.40;45.00
15625;DHT22;7912;51.376;6.126;2023-06-24T12:06:03;38.40;45.00
15625;DHT22;7912;51.376;6.126;2023-06-24T12:08:31;38.40;45.40
15625;DHT22;7912;51.376;6.126;2023-06-24T12:11:17;38.60;45.50
15625;DHT22;7912;51.376;6.126;2023-06-24T12:13:44;38.70;44.90
15625;DHT22;7912;51.376;6.126;2023-06-24T12:16:11;38.90;44.50
15625;DHT22;7912;51.376;6.126;2023-06-24T12:18:38;38.90;44.70
15625;DHT22;7912;51.376;6.126;2023-06-24T12:21:06;38.90;44.90
15625;DHT22;7912;51.376;6.126;2023-06-24T12:23:33;38.90;44.50
15625;DHT22;7912;51.376;6.126;2023-06-24T12:26:00;39.00;45.00
15625;DHT22;7912;51.376;6.126;2023-06-24T12:28:28;39.10;44.30
15625;DHT22;7912;51.376;6.126;2023-06-24T12:30:55;39.20;44.30
15625;DHT22;7912;51.376;6.126;2023-06-24T12:33:22;39.30;44.10
15625;DHT22;7912;51.376;6.126;2023-06-24T12:35:49;39.40;44.30
15625;DHT22;7912;51.376;6.126;2023-06-24T12:38:17;39.50;44.90
15625;DHT22;7912;51.376;6.126;2023-06-24T12:40:44;39.50;45.20
15625;DHT22;7912;51.376;6.126;2023-06-24T12:43:11;39.70;45.20
15625;DHT22;7912;51.376;6.126;2023-06-24T12:45:39;39.80;44.80
15625;DHT22;7912;51.376;6.126;2023-06-24T12:48:13;40.10;44.70
15625;DHT22;7912;51.376;6.126;2023-06-24T12:50:41;40.40;44.10
15625;DHT22;7912;51.376;6.126;2023-06-24T12:53:08;40.60;44.30
15625;DHT22;7912;51.376;6.126;2023-06-24T12:55:59;40.80;43.60
15625;DHT22;7912;51.376;6.126;2023-06-24T12:58:27;41.10;43.10
15625;DHT22;7912;51.376;6.126;2023-06-24T13:00:54;41.20;44.00
15625;DHT22;7912;51.376;6.126;2023-06-24T13:03:21;41.40;44.10
15625;DHT22;7912;51.376;6.126;2023-06-24T13:05:49;41.60;43.60
15625;DHT22;7912;51.376;6.126;2023-06-24T13:08:16;41.80;43.20
15625;DHT22;7912;51.376;6.126;2023-06-24T13:14:07;41.80;42.80
15625;DHT22;7912;51.376;6.126;2023-06-24T13:16:37;41.90;42.70
15625;DHT22;7912;51.376;6.126;2023-06-24T13:19:04;41.90;43.30
15625;DHT22;7912;51.376;6.126;2023-06-24T13:21:32;41.90;42.90
15625;DHT22;7912;51.376;6.126;2023-06-24T13:23:59;42.00;43.20
15625;DHT22;7912;51.376;6.126;2023-06-24T13:26:26;42.10;42.90
15625;DHT22;7912;51.376;6.126;2023-06-24T13:28:53;42.20;43.20
15625;DHT22;7912;51.376;6.126;2023-06-24T13:31:21;42.30;43.30
15625;DHT22;7912;51.376;6.126;2023-06-24T13:33:48;42.40;43.00
15625;DHT22;7912;51.376;6.126;2023-06-24T13:36:33;42.50;43.00
15625;DHT22;7912;51.376;6.126;2023-06-24T13:39:04;42.70;42.90
15625;DHT22;7912;51.376;6.126;2023-06-24T13:44:58;42.90;41.90
15625;DHT22;7912;51.376;6.126;2023-06-24T13:47:25;42.90;41.80
15625;DHT22;7912;51.376;6.126;2023-06-24T13:49:53;42.70;41.20
15625;DHT22;7912;51.376;6.126;2023-06-24T13:52:20;42.50;41.70
15625;DHT22;7912;51.376;6.126;2023-06-24T13:54:48;42.20;41.30
15625;DHT22;7912;51.376;6.126;2023-06-24T13:57:17;42.00;41.70
15625;DHT22;7912;51.376;6.126;2023-06-24T13:59:44;41.80;42.30
15625;DHT22;7912;51.376;6.126;2023-06-24T14:02:12;41.70;42.20
15625;DHT22;7912;51.376;6.126;2023-06-24T14:04:39;41.60;42.20
15625;DHT22;7912;51.376;6.126;2023-06-24T14:07:07;41.60;42.00
15625;DHT22;7912;51.376;6.126;2023-06-24T14:09:35;41.60;42.40
15625;DHT22;7912;51.376;6.126;2023-06-24T14:15:11;41.80;43.20
15625;DHT22;7912;51.376;6.126;2023-06-24T14:17:38;42.00;42.80
15625;DHT22;7912;51.376;6.126;2023-06-24T14:20:06;42.30;42.70
15625;DHT22;7912;51.376;6.126;2023-06-24T14:22:34;42.40;42.80
15625;DHT22;7912;51.376;6.126;2023-06-24T14:25:01;42.70;42.00
15625;DHT22;7912;51.376;6.126;2023-06-24T14:27:28;42.80;42.00
15625;DHT22;7912;51.376;6.126;2023-06-24T14:29:56;42.80;41.30
15625;DHT22;7912;51.376;6.126;2023-06-24T14:32:23;42.70;40.90
15625;DHT22;7912;51.376;6.126;2023-06-24T14:34:54;42.50;41.30
15625;DHT22;7912;51.376;6.126;2023-06-24T14:37:23;42.30;41.60
15625;DHT22;7912;51.376;6.126;2023-06-24T14:39:51;42.10;41.50
15625;DHT22;7912;51.376;6.126;2023-06-24T14:42:18;42.00;41.60
15625;DHT22;7912;51.376;6.126;2023-06-24T14:44:45;42.10;41.60
15625;DHT22;7912;51.376;6.126;2023-06-24T14:47:12;42.00;41.30
15625;DHT22;7912;51.376;6.126;2023-06-24T14:49:40;41.90;41.30
15625;DHT22;7912;51.376;6.126;2023-06-24T14:52:07;41.90;41.20
15625;DHT22;7912;51.376;6.126;2023-06-24T14:54:35;41.90;41.40
15625;DHT22;7912;51.376;6.126;2023-06-24T14:57:02;42.00;41.80
15625;DHT22;7912;51.376;6.126;2023-06-24T14:59:30;42.00;41.60
15625;DHT22;7912;51.376;6.126;2023-06-24T15:01:58;42.10;41.40
15625;DHT22;7912;51.376;6.126;2023-06-24T15:04:25;42.10;41.50
15625;DHT22;7912;51.376;6.126;2023-06-24T15:06:53;42.10;41.30
15625;DHT22;7912;51.376;6.126;2023-06-24T15:09:22;42.20;40.70
15625;DHT22;7912;51.376;6.126;2023-06-24T15:11:50;42.10;40.60
15625;DHT22;7912;51.376;6.126;2023-06-24T15:14:20;42.10;41.10
15625;DHT22;7912;51.376;6.126;2023-06-24T15:16:48;42.00;40.80
15625;DHT22;7912;51.376;6.126;2023-06-24T15:19:16;42.10;40.80
15625;DHT22;7912;51.376;6.126;2023-06-24T15:21:44;42.10;40.50
15625;DHT22;7912;51.376;6.126;2023-06-24T15:24:11;42.10;40.60
15625;DHT22;7912;51.376;6.126;2023-06-24T15:26:38;41.90;40.70
15625;DHT22;7912;51.376;6.126;2023-06-24T15:29:06;41.80;41.10
15625;DHT22;7912;51.376;6.126;2023-06-24T15:31:33;41.80;41.10
15625;DHT22;7912;51.376;6.126;2023-06-24T15:34:00;41.80;41.30
15625;DHT22;7912;51.376;6.126;2023-06-24T15:36:28;41.80;41.50
15625;DHT22;7912;51.376;6.126;2023-06-24T15:38:56;41.90;41.50
15625;DHT22;7912;51.376;6.126;2023-06-24T15:41:24;41.90;41.70
15625;DHT22;7912;51.376;6.126;2023-06-24T15:43:51;42.00;41.80
15625;DHT22;7912;51.376;6.126;2023-06-24T15:46:18;42.10;41.80
15625;DHT22;7912;51.376;6.126;2023-06-24T15:48:46;42.20;41.70
15625;DHT22;7912;51.376;6.126;2023-06-24T15:51:13;42.40;41.60
15625;DHT22;7912;51.376;6.126;2023-06-24T15:53:41;42.50;41.70
15625;DHT22;7912;51.376;6.126;2023-06-24T15:56:08;42.70;41.30
15625;DHT22;7912;51.376;6.126;2023-06-24T15:58:35;42.80;41.20
15625;DHT22;7912;51.376;6.126;2023-06-24T16:01:02;42.90;41.20
15625;DHT22;7912;51.376;6.126;2023-06-24T16:03:30;43.00;41.10
15625;DHT22;7912;51.376;6.126;2023-06-24T16:05:57;43.10;41.00
15625;DHT22;7912;51.376;6.126;2023-06-24T16:08:25;43.10;40.40
15625;DHT22;7912;51.376;6.126;2023-06-24T16:10:55;43.10;40.20
15625;DHT22;7912;51.376;6.126;2023-06-24T16:13:22;43.00;40.70
15625;DHT22;7912;51.376;6.126;2023-06-24T16:15:49;42.80;40.40
15625;DHT22;7912;51.376;6.126;2023-06-24T16:18:17;42.80;40.30
15625;DHT22;7912;51.376;6.126;2023-06-24T16:20:44;42.70;40.20
15625;DHT22;7912;51.376;6.126;2023-06-24T16:23:11;42.40;40.20
15625;DHT22;7912;51.376;6.126;2023-06-24T16:25:39;42.20;40.40
15625;DHT22;7912;51.376;6.126;2023-06-24T16:28:07;41.90;40.30
15625;DHT22;7912;51.376;6.126;2023-06-24T16:30:34;41.70;40.80
15625;DHT22;7912;51.376;6.126;2023-06-24T16:36:07;41.30;40.60
15625;DHT22;7912;51.376;6.126;2023-06-24T16:38:34;41.10;40.80
15625;DHT22;7912;51.376;6.126;2023-06-24T16:41:01;41.00;41.00
15625;DHT22;7912;51.376;6.126;2023-06-24T16:43:30;40.80;41.60
15625;DHT22;7912;51.376;6.126;2023-06-24T16:45:58;40.60;41.70